sensor_id;sensor_type;location;lat;lon;timestamp;P1;durP1;ratioP1;P2;durP2;ratioP2
11488;SDS011;5801;50.804;12.638;2023-03-01T00:01:16;6.70;;;3.20;;
11488;SDS011;5801;50.804;12.638;2023-03-01T00:03:43;6.07;;;4.30;;
11488;SDS011;5801;50.804;12.638;2023-03-01T00:06:09;5.13;;;4.20;;
11488;SDS011;5801;50.804;12.638;2023-03-01T00:08:36;3.97;;;3.13;;
11488;SDS011;5801;50.804;12.638;2023-03-01T00:13:27;5.65;;;2.85;;
11488;SDS011;5801;50.804;12.638;2023-03-01T00:15:53;6.95;;;5.18;;
11488;SDS011;5801;50.804;12.638;2023-03-01T00:18:19;8.65;;;5.15;;
11488;SDS011;5801;50.804;12.638;2023-03-01T00:20:52;6.05;;;3.83;;
11488;SDS011;5801;50.804;12.638;2023-03-01T00:23:19;4.38;;;3.65;;
11488;SDS011;5801;50.804;12.638;2023-03-01T00:25:44;4.63;;;2.63;;
11488;SDS011;5801;50.804;12.638;2023-03-01T00:28:10;8.00;;;3.63;;
11488;SDS011;5801;50.804;12.638;2023-03-01T00:30:36;6.68;;;3.00;;
11488;SDS011;5801;50.804;12.638;2023-03-01T00:33:02;5.15;;;4.38;;
11488;SDS011;5801;50.804;12.638;2023-03-01T00:35:28;6.90;;;3.90;;
11488;SDS011;5801;50.804;12.638;2023-03-01T00:37:58;4.35;;;2.67;;
11488;SDS011;5801;50.804;12.638;2023-03-01T00:40:24;5.93;;;4.50;;
11488;SDS011;5801;50.804;12.638;2023-03-01T00:42:50;4.68;;;3.03;;
11488;SDS011;5801;50.804;12.638;2023-03-01T00:45:16;2.85;;;2.50;;
11488;SDS011;5801;50.804;12.638;2023-03-01T00:47:42;4.53;;;2.53;;
11488;SDS011;5801;50.804;12.638;2023-03-01T00:50:08;3.45;;;2.50;;
11488;SDS011;5801;50.804;12.638;2023-03-01T00:52:35;4.28;;;3.10;;
11488;SDS011;5801;50.804;12.638;2023-03-01T00:55:00;6.00;;;4.32;;
11488;SDS011;5801;50.804;12.638;2023-03-01T00:57:26;5.40;;;3.88;;
11488;SDS011;5801;50.804;12.638;2023-03-01T00:59:52;10.73;;;3.97;;
11488;SDS011;5801;50.804;12.638;2023-03-01T01:02:18;6.53;;;3.22;;
11488;SDS011;5801;50.804;12.638;2023-03-01T01:04:44;6.97;;;3.13;;
11488;SDS011;5801;50.804;12.638;2023-03-01T01:07:10;4.22;;;2.75;;
11488;SDS011;5801;50.804;12.638;2023-03-01T01:09:36;4.80;;;3.80;;
11488;SDS011;5801;50.804;12.638;2023-03-01T01:12:02;3.83;;;2.97;;
11488;SDS011;5801;50.804;12.638;2023-03-01T01:14:28;4.68;;;3.95;;
11488;SDS011;5801;50.804;12.638;2023-03-01T01:16:54;4.55;;;3.33;;
11488;SDS011;5801;50.804;12.638;2023-03-01T01:19:20;6.40;;;2.95;;
11488;SDS011;5801;50.804;12.638;2023-03-01T01:21:46;3.92;;;3.30;;
11488;SDS011;5801;50.804;12.638;2023-03-01T01:24:13;11.30;;;4.25;;
11488;SDS011;5801;50.804;12.638;2023-03-01T01:26:39;4.18;;;3.25;;
11488;SDS011;5801;50.804;12.638;2023-03-01T01:29:06;5.40;;;2.53;;
11488;SDS011;5801;50.804;12.638;2023-03-01T01:31:32;3.20;;;2.22;;
11488;SDS011;5801;50.804;12.638;2023-03-01T01:34:00;2.58;;;2.33;;
11488;SDS011;5801;50.804;12.638;2023-03-01T01:36:27;8.48;;;2.83;;
11488;SDS011;5801;50.804;12.638;2023-03-01T01:38:52;3.72;;;2.15;;
11488;SDS011;5801;50.804;12.638;2023-03-01T01:41:18;4.82;;;3.15;;
11488;SDS011;5801;50.804;12.638;2023-03-01T01:43:46;7.93;;;4.15;;
11488;SDS011;5801;50.804;12.638;2023-03-01T01:46:15;5.85;;;3.67;;
11488;SDS011;5801;50.804;12.638;2023-03-01T01:48:43;2.70;;;2.08;;
11488;SDS011;5801;50.804;12.638;2023-03-01T01:51:15;2.35;;;2.10;;
11488;SDS011;5801;50.804;12.638;2023-03-01T01:53:45;8.27;;;2.85;;
11488;SDS011;5801;50.804;12.638;2023-03-01T01:56:12;5.47;;;3.50;;
11488;SDS011;5801;50.804;12.638;2023-03-01T01:58:39;3.13;;;2.83;;
11488;SDS011;5801;50.804;12.638;2023-03-01T02:01:07;5.88;;;3.90;;
11488;SDS011;5801;50.804;12.638;2023-03-01T02:03:33;7.00;;;3.65;;
11488;SDS011;5801;50.804;12.638;2023-03-01T02:09:02;3.17;;;2.17;;
11488;SDS011;5801;50.804;12.638;2023-03-01T02:11:32;4.45;;;2.63;;
11488;SDS011;5801;50.804;12.638;2023-03-01T02:13:59;5.45;;;3.50;;
11488;SDS011;5801;50.804;12.638;2023-03-01T02:16:25;3.63;;;2.65;;
11488;SDS011;5801;50.804;12.638;2023-03-01T02:18:51;4.35;;;3.10;;
11488;SDS011;5801;50.804;12.638;2023-03-01T02:21:26;4.03;;;3.58;;
11488;SDS011;5801;50.804;12.638;2023-03-01T02:26:45;4.65;;;3.80;;
11488;SDS011;5801;50.804;12.638;2023-03-01T02:29:14;9.80;;;4.10;;
11488;SDS011;5801;50.804;12.638;2023-03-01T02:31:40;4.05;;;3.17;;
11488;SDS011;5801;50.804;12.638;2023-03-01T02:34:06;7.40;;;3.67;;
11488;SDS011;5801;50.804;12.638;2023-03-01T02:36:35;5.00;;;4.50;;
11488;SDS011;5801;50.804;12.638;2023-03-01T02:39:03;5.22;;;4.03;;
11488;SDS011;5801;50.804;12.638;2023-03-01T02:41:39;4.63;;;3.47;;
11488;SDS011;5801;50.804;12.638;2023-03-01T02:44:05;2.65;;;2.38;;
11488;SDS011;5801;50.804;12.638;2023-03-01T02:46:31;3.85;;;2.83;;
11488;SDS011;5801;50.804;12.638;2023-03-01T02:48:57;4.72;;;3.38;;
11488;SDS011;5801;50.804;12.638;2023-03-01T02:56:59;4.13;;;2.97;;
11488;SDS011;5801;50.804;12.638;2023-03-01T02:59:26;3.30;;;3.03;;
11488;SDS011;5801;50.804;12.638;2023-03-01T03:01:56;9.95;;;3.97;;
11488;SDS011;5801;50.804;12.638;2023-03-01T03:04:22;4.25;;;3.20;;
11488;SDS011;5801;50.804;12.638;2023-03-01T03:06:49;5.05;;;3.17;;
11488;SDS011;5801;50.804;12.638;2023-03-01T03:09:16;4.65;;;3.15;;
11488;SDS011;5801;50.804;12.638;2023-03-01T03:11:42;5.55;;;3.80;;
11488;SDS011;5801;50.804;12.638;2023-03-01T03:14:09;11.85;;;2.75;;
11488;SDS011;5801;50.804;12.638;2023-03-01T03:16:44;7.25;;;3.30;;
11488;SDS011;5801;50.804;12.638;2023-03-01T03:19:11;7.40;;;3.45;;
11488;SDS011;5801;50.804;12.638;2023-03-01T03:21:36;4.32;;;3.33;;
11488;SDS011;5801;50.804;12.638;2023-03-01T03:24:02;5.55;;;4.45;;
11488;SDS011;5801;50.804;12.638;2023-03-01T03:26:28;6.28;;;4.68;;
11488;SDS011;5801;50.804;12.638;2023-03-01T03:28:54;3.90;;;3.40;;
11488;SDS011;5801;50.804;12.638;2023-03-01T03:31:21;10.23;;;4.85;;
11488;SDS011;5801;50.804;12.638;2023-03-01T03:33:47;6.90;;;4.70;;
11488;SDS011;5801;50.804;12.638;2023-03-01T03:36:16;5.95;;;4.88;;
11488;SDS011;5801;50.804;12.638;2023-03-01T03:38:43;4.90;;;3.88;;
11488;SDS011;5801;50.804;12.638;2023-03-01T03:41:10;10.35;;;4.03;;
11488;SDS011;5801;50.804;12.638;2023-03-01T03:43:37;4.88;;;3.25;;
11488;SDS011;5801;50.804;12.638;2023-03-01T03:46:04;3.55;;;2.92;;
11488;SDS011;5801;50.804;12.638;2023-03-01T03:48:30;4.00;;;2.70;;
11488;SDS011;5801;50.804;12.638;2023-03-01T03:50:58;4.40;;;3.78;;
11488;SDS011;5801;50.804;12.638;2023-03-01T03:53:24;3.20;;;2.83;;
11488;SDS011;5801;50.804;12.638;2023-03-01T03:55:51;6.95;;;3.25;;
11488;SDS011;5801;50.804;12.638;2023-03-01T03:58:18;6.55;;;3.00;;
11488;SDS011;5801;50.804;12.638;2023-03-01T04:00:46;3.80;;;2.15;;
11488;SDS011;5801;50.804;12.638;2023-03-01T04:03:13;5.82;;;3.42;;
11488;SDS011;5801;50.804;12.638;2023-03-01T04:05:40;2.63;;;2.42;;
11488;SDS011;5801;50.804;12.638;2023-03-01T04:08:06;4.07;;;2.13;;
11488;SDS011;5801;50.804;12.638;2023-03-01T04:10:34;3.92;;;2.45;;
11488;SDS011;5801;50.804;12.638;2023-03-01T04:13:05;5.75;;;3.63;;
11488;SDS011;5801;50.804;12.638;2023-03-01T04:15:32;7.72;;;4.05;;
11488;SDS011;5801;50.804;12.638;2023-03-01T04:17:58;3.70;;;2.97;;
11488;SDS011;5801;50.804;12.638;2023-03-01T04:20:28;7.18;;;4.40;;
11488;SDS011;5801;50.804;12.638;2023-03-01T04:23:05;11.10;;;3.95;;
11488;SDS011;5801;50.804;12.638;2023-03-01T04:25:37;8.80;;;5.25;;
11488;SDS011;5801;50.804;12.638;2023-03-01T04:28:26;11.20;;;4.03;;
11488;SDS011;5801;50.804;12.638;2023-03-01T04:30:58;6.97;;;3.20;;
11488;SDS011;5801;50.804;12.638;2023-03-01T04:33:25;3.10;;;2.63;;
11488;SDS011;5801;50.804;12.638;2023-03-01T04:35:51;5.03;;;3.60;;
11488;SDS011;5801;50.804;12.638;2023-03-01T04:38:17;7.88;;;5.68;;
11488;SDS011;5801;50.804;12.638;2023-03-01T04:40:43;3.95;;;3.65;;
11488;SDS011;5801;50.804;12.638;2023-03-01T04:43:10;8.77;;;4.80;;
11488;SDS011;5801;50.804;12.638;2023-03-01T04:45:36;7.53;;;3.92;;
11488;SDS011;5801;50.804;12.638;2023-03-01T04:48:02;14.65;;;6.07;;
11488;SDS011;5801;50.804;12.638;2023-03-01T04:50:28;15.02;;;5.75;;
11488;SDS011;5801;50.804;12.638;2023-03-01T04:52:54;10.20;;;4.90;;
11488;SDS011;5801;50.804;12.638;2023-03-01T04:55:23;6.97;;;4.65;;
11488;SDS011;5801;50.804;12.638;2023-03-01T04:57:50;3.33;;;2.42;;
11488;SDS011;5801;50.804;12.638;2023-03-01T05:00:16;7.40;;;3.83;;
11488;SDS011;5801;50.804;12.638;2023-03-01T05:02:55;9.88;;;4.53;;
11488;SDS011;5801;50.804;12.638;2023-03-01T05:05:26;6.28;;;3.72;;
11488;SDS011;5801;50.804;12.638;2023-03-01T05:07:53;4.85;;;4.07;;
11488;SDS011;5801;50.804;12.638;2023-03-01T05:10:19;4.38;;;3.20;;
11488;SDS011;5801;50.804;12.638;2023-03-01T05:12:45;8.85;;;3.78;;
11488;SDS011;5801;50.804;12.638;2023-03-01T05:15:12;12.43;;;7.03;;
11488;SDS011;5801;50.804;12.638;2023-03-01T05:17:37;35.80;;;8.55;;
11488;SDS011;5801;50.804;12.638;2023-03-01T05:20:03;7.28;;;5.47;;
11488;SDS011;5801;50.804;12.638;2023-03-01T05:22:36;6.38;;;4.38;;
11488;SDS011;5801;50.804;12.638;2023-03-01T05:25:02;13.13;;;7.15;;
11488;SDS011;5801;50.804;12.638;2023-03-01T05:27:28;7.30;;;4.80;;
11488;SDS011;5801;50.804;12.638;2023-03-01T05:29:55;3.08;;;2.88;;
11488;SDS011;5801;50.804;12.638;2023-03-01T05:32:21;8.60;;;4.10;;
11488;SDS011;5801;50.804;12.638;2023-03-01T05:34:47;4.00;;;3.17;;
11488;SDS011;5801;50.804;12.638;2023-03-01T05:37:12;14.13;;;2.30;;
11488;SDS011;5801;50.804;12.638;2023-03-01T05:39:38;6.63;;;4.75;;
11488;SDS011;5801;50.804;12.638;2023-03-01T05:42:04;7.70;;;3.88;;
11488;SDS011;5801;50.804;12.638;2023-03-01T05:44:30;4.07;;;3.20;;
11488;SDS011;5801;50.804;12.638;2023-03-01T05:46:55;11.30;;;4.97;;
11488;SDS011;5801;50.804;12.638;2023-03-01T05:49:21;10.15;;;3.55;;
11488;SDS011;5801;50.804;12.638;2023-03-01T05:51:49;4.30;;;3.88;;
11488;SDS011;5801;50.804;12.638;2023-03-01T05:54:15;3.70;;;3.38;;
11488;SDS011;5801;50.804;12.638;2023-03-01T05:56:41;8.60;;;3.67;;
11488;SDS011;5801;50.804;12.638;2023-03-01T05:59:07;5.45;;;4.40;;
11488;SDS011;5801;50.804;12.638;2023-03-01T06:01:33;4.05;;;3.72;;
11488;SDS011;5801;50.804;12.638;2023-03-01T06:03:59;3.67;;;3.00;;
11488;SDS011;5801;50.804;12.638;2023-03-01T06:06:25;4.25;;;3.75;;
11488;SDS011;5801;50.804;12.638;2023-03-01T06:08:51;3.97;;;3.47;;
11488;SDS011;5801;50.804;12.638;2023-03-01T06:11:17;5.22;;;4.07;;
11488;SDS011;5801;50.804;12.638;2023-03-01T06:13:43;5.30;;;3.65;;
11488;SDS011;5801;50.804;12.638;2023-03-01T06:16:09;6.70;;;3.17;;
11488;SDS011;5801;50.804;12.638;2023-03-01T06:18:36;6.97;;;4.32;;
11488;SDS011;5801;50.804;12.638;2023-03-01T06:21:02;7.18;;;4.60;;
11488;SDS011;5801;50.804;12.638;2023-03-01T06:23:29;7.07;;;3.95;;
11488;SDS011;5801;50.804;12.638;2023-03-01T06:25:55;4.95;;;3.65;;
11488;SDS011;5801;50.804;12.638;2023-03-01T06:28:21;14.75;;;8.00;;
11488;SDS011;5801;50.804;12.638;2023-03-01T06:30:47;8.88;;;5.03;;
11488;SDS011;5801;50.804;12.638;2023-03-01T06:33:14;8.32;;;6.18;;
11488;SDS011;5801;50.804;12.638;2023-03-01T06:35:40;5.28;;;4.78;;
11488;SDS011;5801;50.804;12.638;2023-03-01T06:38:06;7.03;;;5.38;;
11488;SDS011;5801;50.804;12.638;2023-03-01T06:40:31;14.40;;;7.03;;
11488;SDS011;5801;50.804;12.638;2023-03-01T06:42:57;14.02;;;6.13;;
11488;SDS011;5801;50.804;12.638;2023-03-01T06:45:24;7.10;;;4.13;;
11488;SDS011;5801;50.804;12.638;2023-03-01T06:47:50;8.68;;;4.13;;
11488;SDS011;5801;50.804;12.638;2023-03-01T06:50:16;5.65;;;5.03;;
11488;SDS011;5801;50.804;12.638;2023-03-01T06:52:42;7.68;;;6.28;;
11488;SDS011;5801;50.804;12.638;2023-03-01T06:55:09;8.75;;;5.00;;
11488;SDS011;5801;50.804;12.638;2023-03-01T06:57:35;8.82;;;4.78;;
11488;SDS011;5801;50.804;12.638;2023-03-01T07:00:02;7.63;;;6.15;;
11488;SDS011;5801;50.804;12.638;2023-03-01T07:02:29;19.95;;;10.80;;
11488;SDS011;5801;50.804;12.638;2023-03-01T07:04:54;14.90;;;8.15;;
11488;SDS011;5801;50.804;12.638;2023-03-01T07:07:20;16.67;;;8.18;;
11488;SDS011;5801;50.804;12.638;2023-03-01T07:09:46;10.50;;;7.07;;
11488;SDS011;5801;50.804;12.638;2023-03-01T07:12:12;8.93;;;5.70;;
11488;SDS011;5801;50.804;12.638;2023-03-01T07:14:38;10.80;;;6.30;;
11488;SDS011;5801;50.804;12.638;2023-03-01T07:17:03;11.30;;;6.63;;
11488;SDS011;5801;50.804;12.638;2023-03-01T07:19:29;9.30;;;6.03;;
11488;SDS011;5801;50.804;12.638;2023-03-01T07:21:55;14.18;;;7.47;;
11488;SDS011;5801;50.804;12.638;2023-03-01T07:24:21;11.60;;;6.85;;
11488;SDS011;5801;50.804;12.638;2023-03-01T07:26:48;14.73;;;9.20;;
11488;SDS011;5801;50.804;12.638;2023-03-01T07:29:15;16.45;;;9.27;;
11488;SDS011;5801;50.804;12.638;2023-03-01T07:31:41;11.98;;;6.45;;
11488;SDS011;5801;50.804;12.638;2023-03-01T07:34:06;16.20;;;8.07;;
11488;SDS011;5801;50.804;12.638;2023-03-01T07:36:32;11.20;;;7.65;;
11488;SDS011;5801;50.804;12.638;2023-03-01T07:38:58;17.67;;;9.27;;
11488;SDS011;5801;50.804;12.638;2023-03-01T07:41:27;13.75;;;8.27;;
11488;SDS011;5801;50.804;12.638;2023-03-01T07:43:53;17.42;;;8.57;;
11488;SDS011;5801;50.804;12.638;2023-03-01T07:46:18;15.30;;;8.18;;
11488;SDS011;5801;50.804;12.638;2023-03-01T07:48:44;15.45;;;8.52;;
11488;SDS011;5801;50.804;12.638;2023-03-01T07:51:10;18.33;;;7.88;;
11488;SDS011;5801;50.804;12.638;2023-03-01T07:53:36;17.85;;;9.10;;
11488;SDS011;5801;50.804;12.638;2023-03-01T07:56:09;20.27;;;8.75;;
11488;SDS011;5801;50.804;12.638;2023-03-01T07:58:37;19.95;;;9.25;;
11488;SDS011;5801;50.804;12.638;2023-03-01T08:01:07;18.73;;;10.25;;
11488;SDS011;5801;50.804;12.638;2023-03-01T08:03:34;21.25;;;11.52;;
11488;SDS011;5801;50.804;12.638;2023-03-01T08:06:01;25.73;;;10.68;;
11488;SDS011;5801;50.804;12.638;2023-03-01T08:08:29;15.70;;;10.18;;
11488;SDS011;5801;50.804;12.638;2023-03-01T08:10:58;21.90;;;10.15;;
11488;SDS011;5801;50.804;12.638;2023-03-01T08:13:24;18.20;;;9.65;;
11488;SDS011;5801;50.804;12.638;2023-03-01T08:15:50;17.73;;;11.20;;
11488;SDS011;5801;50.804;12.638;2023-03-01T08:18:17;20.27;;;10.93;;
11488;SDS011;5801;50.804;12.638;2023-03-01T08:20:43;21.00;;;12.88;;
11488;SDS011;5801;50.804;12.638;2023-03-01T08:23:09;21.17;;;11.32;;
11488;SDS011;5801;50.804;12.638;2023-03-01T08:25:35;24.50;;;12.38;;
11488;SDS011;5801;50.804;12.638;2023-03-01T08:28:01;20.67;;;11.38;;
11488;SDS011;5801;50.804;12.638;2023-03-01T08:30:26;22.27;;;11.93;;
11488;SDS011;5801;50.804;12.638;2023-03-01T08:32:52;20.83;;;11.40;;
11488;SDS011;5801;50.804;12.638;2023-03-01T08:35:19;25.30;;;13.20;;
11488;SDS011;5801;50.804;12.638;2023-03-01T08:37:45;23.08;;;10.98;;
11488;SDS011;5801;50.804;12.638;2023-03-01T08:40:11;20.50;;;11.63;;
11488;SDS011;5801;50.804;12.638;2023-03-01T08:42:38;21.45;;;12.57;;
11488;SDS011;5801;50.804;12.638;2023-03-01T08:45:10;21.50;;;12.63;;
11488;SDS011;5801;50.804;12.638;2023-03-01T08:47:36;23.45;;;12.25;;
11488;SDS011;5801;50.804;12.638;2023-03-01T08:50:03;22.08;;;12.27;;
11488;SDS011;5801;50.804;12.638;2023-03-01T08:52:29;25.25;;;12.18;;
11488;SDS011;5801;50.804;12.638;2023-03-01T08:54:56;20.65;;;10.20;;
11488;SDS011;5801;50.804;12.638;2023-03-01T08:57:22;20.63;;;10.90;;
11488;SDS011;5801;50.804;12.638;2023-03-01T08:59:48;22.30;;;12.48;;
11488;SDS011;5801;50.804;12.638;2023-03-01T09:02:15;18.50;;;10.95;;
11488;SDS011;5801;50.804;12.638;2023-03-01T09:04:42;17.15;;;10.73;;
11488;SDS011;5801;50.804;12.638;2023-03-01T09:07:09;20.00;;;11.95;;
11488;SDS011;5801;50.804;12.638;2023-03-01T09:09:35;16.83;;;10.45;;
11488;SDS011;5801;50.804;12.638;2023-03-01T09:12:02;24.35;;;10.95;;
11488;SDS011;5801;50.804;12.638;2023-03-01T09:14:28;17.98;;;10.30;;
11488;SDS011;5801;50.804;12.638;2023-03-01T09:16:54;12.93;;;9.48;;
11488;SDS011;5801;50.804;12.638;2023-03-01T09:19:20;16.20;;;10.07;;
11488;SDS011;5801;50.804;12.638;2023-03-01T09:21:46;19.35;;;11.48;;
11488;SDS011;5801;50.804;12.638;2023-03-01T09:24:18;19.60;;;11.55;;
11488;SDS011;5801;50.804;12.638;2023-03-01T09:26:45;18.00;;;10.50;;
11488;SDS011;5801;50.804;12.638;2023-03-01T09:29:11;18.50;;;10.75;;
11488;SDS011;5801;50.804;12.638;2023-03-01T09:31:37;19.75;;;11.20;;
11488;SDS011;5801;50.804;12.638;2023-03-01T09:34:03;18.48;;;10.77;;
11488;SDS011;5801;50.804;12.638;2023-03-01T09:36:29;16.02;;;9.65;;
11488;SDS011;5801;50.804;12.638;2023-03-01T09:38:55;21.25;;;10.95;;
11488;SDS011;5801;50.804;12.638;2023-03-01T09:44:12;17.23;;;10.40;;
11488;SDS011;5801;50.804;12.638;2023-03-01T09:46:57;16.08;;;9.68;;
11488;SDS011;5801;50.804;12.638;2023-03-01T09:49:26;21.52;;;9.88;;
11488;SDS011;5801;50.804;12.638;2023-03-01T09:54:25;15.25;;;9.73;;
11488;SDS011;5801;50.804;12.638;2023-03-01T09:56:57;19.90;;;10.45;;
11488;SDS011;5801;50.804;12.638;2023-03-01T09:59:31;13.55;;;8.57;;
11488;SDS011;5801;50.804;12.638;2023-03-01T10:02:14;17.55;;;9.90;;
11488;SDS011;5801;50.804;12.638;2023-03-01T10:08:02;17.25;;;9.95;;
11488;SDS011;5801;50.804;12.638;2023-03-01T10:10:50;15.13;;;9.30;;
11488;SDS011;5801;50.804;12.638;2023-03-01T10:13:22;15.57;;;9.00;;
11488;SDS011;5801;50.804;12.638;2023-03-01T10:16:37;18.02;;;10.25;;
11488;SDS011;5801;50.804;12.638;2023-03-01T10:19:12;20.35;;;10.10;;
11488;SDS011;5801;50.804;12.638;2023-03-01T10:21:45;17.88;;;10.45;;
11488;SDS011;5801;50.804;12.638;2023-03-01T10:24:14;16.23;;;10.18;;
11488;SDS011;5801;50.804;12.638;2023-03-01T10:26:54;17.52;;;9.63;;
11488;SDS011;5801;50.804;12.638;2023-03-01T10:29:23;20.55;;;9.88;;
11488;SDS011;5801;50.804;12.638;2023-03-01T10:32:02;16.85;;;10.38;;
11488;SDS011;5801;50.804;12.638;2023-03-01T10:34:31;20.60;;;9.32;;
11488;SDS011;5801;50.804;12.638;2023-03-01T10:37:01;13.60;;;9.30;;
11488;SDS011;5801;50.804;12.638;2023-03-01T10:39:34;14.20;;;9.48;;
11488;SDS011;5801;50.804;12.638;2023-03-01T10:42:02;16.45;;;9.85;;
11488;SDS011;5801;50.804;12.638;2023-03-01T10:44:47;21.35;;;10.20;;
11488;SDS011;5801;50.804;12.638;2023-03-01T10:47:20;19.05;;;10.93;;
11488;SDS011;5801;50.804;12.638;2023-03-01T10:49:58;18.10;;;9.90;;
11488;SDS011;5801;50.804;12.638;2023-03-01T10:52:26;19.80;;;9.77;;
11488;SDS011;5801;50.804;12.638;2023-03-01T10:54:55;16.92;;;11.00;;
11488;SDS011;5801;50.804;12.638;2023-03-01T10:57:43;18.48;;;9.73;;
11488;SDS011;5801;50.804;12.638;2023-03-01T11:02:47;15.63;;;9.45;;
11488;SDS011;5801;50.804;12.638;2023-03-01T11:05:34;22.13;;;9.82;;
11488;SDS011;5801;50.804;12.638;2023-03-01T11:08:00;17.30;;;9.55;;
11488;SDS011;5801;50.804;12.638;2023-03-01T11:10:35;17.52;;;9.43;;
11488;SDS011;5801;50.804;12.638;2023-03-01T11:13:14;13.55;;;9.45;;
11488;SDS011;5801;50.804;12.638;2023-03-01T11:15:42;14.63;;;9.70;;
11488;SDS011;5801;50.804;12.638;2023-03-01T11:18:18;14.48;;;9.57;;
11488;SDS011;5801;50.804;12.638;2023-03-01T11:20:48;16.08;;;9.90;;
11488;SDS011;5801;50.804;12.638;2023-03-01T11:23:16;15.57;;;8.85;;
11488;SDS011;5801;50.804;12.638;2023-03-01T11:25:43;16.58;;;10.02;;
11488;SDS011;5801;50.804;12.638;2023-03-01T11:28:20;27.08;;;10.00;;
11488;SDS011;5801;50.804;12.638;2023-03-01T11:30:51;18.17;;;9.45;;
11488;SDS011;5801;50.804;12.638;2023-03-01T11:36:08;18.02;;;9.35;;
11488;SDS011;5801;50.804;12.638;2023-03-01T11:38:48;13.48;;;8.52;;
11488;SDS011;5801;50.804;12.638;2023-03-01T11:41:15;14.45;;;8.57;;
11488;SDS011;5801;50.804;12.638;2023-03-01T11:46:31;19.17;;;8.30;;
11488;SDS011;5801;50.804;12.638;2023-03-01T11:54:17;17.88;;;9.23;;
11488;SDS011;5801;50.804;12.638;2023-03-01T11:59:44;17.95;;;9.70;;
11488;SDS011;5801;50.804;12.638;2023-03-01T12:05:15;15.32;;;9.20;;
11488;SDS011;5801;50.804;12.638;2023-03-01T12:10:44;16.27;;;9.07;;
11488;SDS011;5801;50.804;12.638;2023-03-01T12:16:06;20.13;;;9.77;;
11488;SDS011;5801;50.804;12.638;2023-03-01T12:24:27;16.02;;;7.97;;
11488;SDS011;5801;50.804;12.638;2023-03-01T12:27:10;17.45;;;8.80;;
11488;SDS011;5801;50.804;12.638;2023-03-01T12:30:00;12.27;;;7.57;;
11488;SDS011;5801;50.804;12.638;2023-03-01T12:35:23;19.77;;;10.02;;
11488;SDS011;5801;50.804;12.638;2023-03-01T12:41:14;16.75;;;9.70;;
11488;SDS011;5801;50.804;12.638;2023-03-01T12:49:15;18.00;;;9.85;;
11488;SDS011;5801;50.804;12.638;2023-03-01T12:51:49;15.35;;;9.65;;
11488;SDS011;5801;50.804;12.638;2023-03-01T12:54:20;18.20;;;10.30;;
11488;SDS011;5801;50.804;12.638;2023-03-01T12:56:59;19.13;;;10.20;;
11488;SDS011;5801;50.804;12.638;2023-03-01T12:59:39;21.08;;;10.75;;
11488;SDS011;5801;50.804;12.638;2023-03-01T13:02:28;18.70;;;9.73;;
11488;SDS011;5801;50.804;12.638;2023-03-01T13:05:07;21.00;;;10.13;;
11488;SDS011;5801;50.804;12.638;2023-03-01T13:10:22;21.77;;;10.80;;
11488;SDS011;5801;50.804;12.638;2023-03-01T13:12:53;17.30;;;9.30;;
11488;SDS011;5801;50.804;12.638;2023-03-01T13:15:34;20.50;;;10.73;;
11488;SDS011;5801;50.804;12.638;2023-03-01T13:18:02;16.15;;;9.73;;
11488;SDS011;5801;50.804;12.638;2023-03-01T13:20:33;24.15;;;9.68;;
11488;SDS011;5801;50.804;12.638;2023-03-01T13:30:59;19.30;;;9.43;;
11488;SDS011;5801;50.804;12.638;2023-03-01T13:35:51;18.15;;;8.88;;
11488;SDS011;5801;50.804;12.638;2023-03-01T13:41:02;15.07;;;8.88;;
11488;SDS011;5801;50.804;12.638;2023-03-01T13:43:29;19.90;;;9.35;;
11488;SDS011;5801;50.804;12.638;2023-03-01T13:45:55;16.23;;;9.50;;
11488;SDS011;5801;50.804;12.638;2023-03-01T13:48:28;20.17;;;9.75;;
11488;SDS011;5801;50.804;12.638;2023-03-01T13:50:56;16.15;;;9.00;;
11488;SDS011;5801;50.804;12.638;2023-03-01T13:53:29;19.92;;;9.90;;
11488;SDS011;5801;50.804;12.638;2023-03-01T13:56:00;27.75;;;9.95;;
11488;SDS011;5801;50.804;12.638;2023-03-01T13:58:33;16.70;;;9.57;;
11488;SDS011;5801;50.804;12.638;2023-03-01T14:01:29;19.48;;;8.52;;
11488;SDS011;5801;50.804;12.638;2023-03-01T14:03:54;17.48;;;9.27;;
11488;SDS011;5801;50.804;12.638;2023-03-01T14:06:27;17.67;;;9.27;;
11488;SDS011;5801;50.804;12.638;2023-03-01T14:09:28;18.92;;;9.35;;
11488;SDS011;5801;50.804;12.638;2023-03-01T14:15:02;16.67;;;8.75;;
11488;SDS011;5801;50.804;12.638;2023-03-01T14:17:49;19.52;;;8.63;;
11488;SDS011;5801;50.804;12.638;2023-03-01T14:20:25;20.88;;;9.43;;
11488;SDS011;5801;50.804;12.638;2023-03-01T14:22:54;19.30;;;10.35;;
11488;SDS011;5801;50.804;12.638;2023-03-01T14:27:54;20.33;;;10.70;;
11488;SDS011;5801;50.804;12.638;2023-03-01T14:30:25;19.38;;;9.65;;
11488;SDS011;5801;50.804;12.638;2023-03-01T14:32:56;17.48;;;7.68;;
11488;SDS011;5801;50.804;12.638;2023-03-01T14:35:27;17.95;;;8.63;;
11488;SDS011;5801;50.804;12.638;2023-03-01T14:37:54;19.88;;;9.73;;
11488;SDS011;5801;50.804;12.638;2023-03-01T14:40:23;22.60;;;9.15;;
11488;SDS011;5801;50.804;12.638;2023-03-01T14:42:51;18.00;;;8.50;;
11488;SDS011;5801;50.804;12.638;2023-03-01T14:45:18;18.33;;;9.27;;
11488;SDS011;5801;50.804;12.638;2023-03-01T14:47:45;13.30;;;8.18;;
11488;SDS011;5801;50.804;12.638;2023-03-01T14:50:27;15.25;;;8.05;;
11488;SDS011;5801;50.804;12.638;2023-03-01T14:52:56;19.95;;;7.72;;
11488;SDS011;5801;50.804;12.638;2023-03-01T14:55:25;16.52;;;7.70;;
11488;SDS011;5801;50.804;12.638;2023-03-01T14:57:54;16.23;;;8.10;;
11488;SDS011;5801;50.804;12.638;2023-03-01T15:00:22;18.77;;;9.10;;
11488;SDS011;5801;50.804;12.638;2023-03-01T15:02:53;19.17;;;8.50;;
11488;SDS011;5801;50.804;12.638;2023-03-01T15:05:39;15.65;;;8.93;;
11488;SDS011;5801;50.804;12.638;2023-03-01T15:08:07;18.73;;;8.73;;
11488;SDS011;5801;50.804;12.638;2023-03-01T15:13:42;13.25;;;6.95;;
11488;SDS011;5801;50.804;12.638;2023-03-01T15:16:11;14.50;;;6.85;;
11488;SDS011;5801;50.804;12.638;2023-03-01T15:21:42;13.73;;;7.63;;
11488;SDS011;5801;50.804;12.638;2023-03-01T15:26:47;14.25;;;8.00;;
11488;SDS011;5801;50.804;12.638;2023-03-01T15:29:20;19.13;;;8.07;;
11488;SDS011;5801;50.804;12.638;2023-03-01T15:31:57;20.40;;;9.00;;
11488;SDS011;5801;50.804;12.638;2023-03-01T15:34:28;14.98;;;7.85;;
11488;SDS011;5801;50.804;12.638;2023-03-01T15:36:57;12.68;;;7.38;;
11488;SDS011;5801;50.804;12.638;2023-03-01T15:39:31;14.45;;;6.78;;
11488;SDS011;5801;50.804;12.638;2023-03-01T15:42:02;16.30;;;7.38;;
11488;SDS011;5801;50.804;12.638;2023-03-01T15:44:30;23.00;;;8.50;;
11488;SDS011;5801;50.804;12.638;2023-03-01T15:46:57;20.08;;;7.68;;
11488;SDS011;5801;50.804;12.638;2023-03-01T15:49:30;11.48;;;6.60;;
11488;SDS011;5801;50.804;12.638;2023-03-01T15:52:01;16.30;;;7.75;;
11488;SDS011;5801;50.804;12.638;2023-03-01T15:54:27;15.38;;;8.07;;
11488;SDS011;5801;50.804;12.638;2023-03-01T15:56:53;13.70;;;7.43;;
11488;SDS011;5801;50.804;12.638;2023-03-01T15:59:19;19.70;;;8.05;;
11488;SDS011;5801;50.804;12.638;2023-03-01T16:01:47;13.68;;;7.88;;
11488;SDS011;5801;50.804;12.638;2023-03-01T16:04:13;18.33;;;8.18;;
11488;SDS011;5801;50.804;12.638;2023-03-01T16:06:45;17.15;;;8.35;;
11488;SDS011;5801;50.804;12.638;2023-03-01T16:09:12;15.70;;;8.02;;
11488;SDS011;5801;50.804;12.638;2023-03-01T16:11:38;17.02;;;7.82;;
11488;SDS011;5801;50.804;12.638;2023-03-01T16:14:05;15.95;;;7.57;;
11488;SDS011;5801;50.804;12.638;2023-03-01T16:16:31;18.05;;;8.20;;
11488;SDS011;5801;50.804;12.638;2023-03-01T16:18:57;12.35;;;7.22;;
11488;SDS011;5801;50.804;12.638;2023-03-01T16:21:23;16.58;;;7.53;;
11488;SDS011;5801;50.804;12.638;2023-03-01T16:23:50;13.52;;;6.72;;